createdAt,value
2016-12-11T00:00:27.369Z,93.7
2016-12-11T00:01:27.529Z,93.79
2016-12-11T00:02:27.401Z,93.65
2016-12-11T00:03:27.421Z,93.41
2016-12-11T00:04:27.396Z,93.17
2016-12-11T00:05:27.449Z,93.27
2016-12-11T00:06:27.455Z,92.98
2016-12-11T00:07:27.466Z,93.37
2016-12-11T00:08:27.408Z,93.08
2016-12-11T00:09:27.472Z,92.55
2016-12-11T00:10:27.412Z,92.69
2016-12-11T00:11:27.603Z,92.22
2016-12-11T00:12:27.442Z,92.41
2016-12-11T00:13:27.439Z,92.36
2016-12-11T00:14:27.461Z,92.22
2016-12-11T00:15:27.590Z,92.18
2016-12-11T00:16:27.433Z,91.65
2016-12-11T00:17:27.470Z,92.03
2016-12-11T00:18:27.413Z,91.55
2016-12-11T00:19:27.630Z,90.89
2016-12-11T00:20:27.410Z,91.36
2016-12-11T00:21:27.549Z,91.08
2016-12-11T00:22:27.438Z,90.79
2016-12-11T00:23:27.419Z,90.5
2016-12-11T00:24:27.456Z,90.22
2016-12-11T00:25:27.399Z,90.22
2016-12-11T00:26:27.450Z,89.94
2016-12-11T00:27:27.471Z,89.65
2016-12-11T00:28:27.464Z,89.17
2016-12-11T00:29:27.438Z,88.79
2016-12-11T00:30:27.415Z,88.7
2016-12-11T00:31:27.628Z,89.07
2016-12-11T00:32:27.436Z,88.98
2016-12-11T00:33:27.457Z,89.07
2016-12-11T00:34:27.488Z,88.6
2016-12-11T00:35:27.534Z,88.6
2016-12-11T00:36:27.479Z,88.51
2016-12-11T00:37:27.537Z,88.6
2016-12-11T00:38:27.489Z,88.31
2016-12-11T00:39:27.428Z,89.17
2016-12-11T00:40:27.429Z,88.7
2016-12-11T00:41:27.418Z,88.7
2016-12-11T00:42:27.467Z,88.51
2016-12-11T00:43:27.577Z,88.7
2016-12-11T00:44:27.468Z,88.6
2016-12-11T00:45:27.503Z,88.7
2016-12-11T00:46:27.466Z,89.36
2016-12-11T00:47:27.494Z,88.41
2016-12-11T00:48:27.356Z,88.6
2016-12-11T00:49:27.616Z,88.41
2016-12-11T00:50:27.439Z,88.6
2016-12-11T00:51:27.510Z,88.03
2016-12-11T00:52:27.395Z,88.03
2016-12-11T00:53:27.449Z,88.6
2016-12-11T00:54:27.448Z,88.31
2016-12-11T00:55:27.549Z,88.41
2016-12-11T00:56:27.467Z,87.55
2016-12-11T00:57:27.436Z,87.93
2016-12-11T00:58:27.396Z,88.31
2016-12-11T00:59:27.502Z,88.7
2016-12-11T01:00:27.448Z,89.07
2016-12-11T01:01:27.519Z,89.17
2016-12-11T01:02:27.501Z,88.89
2016-12-11T01:03:27.492Z,89.26
2016-12-11T01:04:27.448Z,90.22
2016-12-11T01:05:27.612Z,90.03
2016-12-11T01:06:27.557Z,91.36
2016-12-11T01:07:27.536Z,90.6
2016-12-11T01:08:27.438Z,90.6
2016-12-11T01:09:27.476Z,91.46
2016-12-11T01:10:27.458Z,90.6
2016-12-11T01:11:27.550Z,90.12
2016-12-11T01:12:27.421Z,90.6
2016-12-11T01:13:27.468Z,89.94
2016-12-11T01:14:27.502Z,90.6
2016-12-11T01:15:28.462Z,89.94
2016-12-11T01:16:27.499Z,89.75
2016-12-11T01:17:27.600Z,90.31
2016-12-11T01:18:27.446Z,89.94
2016-12-11T01:19:27.510Z,90.79
2016-12-11T01:20:27.422Z,89.75
2016-12-11T01:21:27.490Z,89.65
2016-12-11T01:22:27.459Z,89.94
2016-12-11T01:23:27.453Z,90.6
2016-12-11T01:24:27.463Z,90.7
2016-12-11T01:25:27.480Z,90.79
2016-12-11T01:26:27.564Z,89.65
2016-12-11T01:27:27.561Z,89.65
2016-12-11T01:28:27.495Z,90.31
2016-12-11T01:29:27.574Z,91.17
2016-12-11T01:30:27.501Z,91.55
2016-12-11T01:31:27.488Z,92.32
2016-12-11T01:32:27.461Z,93.37
2016-12-11T01:33:27.508Z,93.93
2016-12-11T01:34:27.461Z,94.13
2016-12-11T01:35:27.585Z,94.03
2016-12-11T01:36:27.531Z,94.51
2016-12-11T01:37:27.525Z,94.7
2016-12-11T01:38:27.502Z,95.7
2016-12-11T01:39:27.569Z,94.84
2016-12-11T01:40:27.466Z,95.7
2016-12-11T01:41:27.611Z,95.89
2016-12-11T01:42:27.480Z,96.75
2016-12-11T01:43:27.542Z,97.22
2016-12-11T01:44:27.488Z,97.31
2016-12-11T01:45:27.542Z,97.79
2016-12-11T01:46:27.532Z,97.7
2016-12-11T01:47:27.562Z,97.99
2016-12-11T01:48:27.469Z,97.89
2016-12-11T01:49:27.522Z,98.46
2016-12-11T01:50:27.545Z,98.36
2016-12-11T01:51:27.570Z,98.94
2016-12-11T01:52:28.727Z,98.65
2016-12-11T01:53:27.537Z,99.03
2016-12-11T01:54:27.456Z,99.41
2016-12-11T01:55:27.513Z,99.32
2016-12-11T01:56:27.578Z,99.32
2016-12-11T01:57:27.550Z,99.89
2016-12-11T01:58:27.524Z,99.89
2016-12-11T01:59:27.492Z,98.94
2016-12-11T02:00:27.486Z,99.6
2016-12-11T02:01:27.584Z,99.22
2016-12-11T02:02:27.515Z,99.99
2016-12-11T02:03:27.544Z,99.69
2016-12-11T02:04:27.516Z,99.51
2016-12-11T02:05:27.513Z,99.51
2016-12-11T02:06:27.526Z,99.22
2016-12-11T02:07:27.621Z,99.6
2016-12-11T02:08:27.536Z,99.99
2016-12-11T02:09:27.555Z,99.99
2016-12-11T02:10:27.505Z,99.89
2016-12-11T02:11:27.758Z,99.74
2016-12-11T02:12:27.525Z,99.99
2016-12-11T02:13:27.499Z,99.99
2016-12-11T02:14:27.527Z,99.99
2016-12-11T02:15:27.517Z,99.99
2016-12-11T02:16:27.550Z,99.99
2016-12-11T02:17:27.507Z,99.99
2016-12-11T02:18:27.517Z,99.99
2016-12-11T02:19:27.574Z,99.99
2016-12-11T02:20:27.547Z,99.99
2016-12-11T02:21:27.576Z,99.99
2016-12-11T02:22:27.515Z,99.99
2016-12-11T02:23:27.559Z,99.99
2016-12-11T02:24:27.525Z,99.99
2016-12-11T02:25:28.118Z,99.99
2016-12-11T02:26:27.648Z,99.99
2016-12-11T02:27:27.541Z,99.99
2016-12-11T02:28:27.558Z,99.99
2016-12-11T02:29:27.579Z,99.99
2016-12-11T02:30:27.555Z,99.99
2016-12-11T02:31:27.598Z,99.99
2016-12-11T02:32:27.539Z,99.99
2016-12-11T02:33:27.654Z,99.99
2016-12-11T02:34:27.555Z,99.99
2016-12-11T02:35:27.618Z,99.99
2016-12-11T02:36:27.582Z,99.99
2016-12-11T02:37:27.619Z,99.99
2016-12-11T02:38:27.524Z,99.99
2016-12-11T02:39:27.539Z,99.99
2016-12-11T02:40:27.517Z,99.99
2016-12-11T02:41:27.577Z,99.99
2016-12-11T02:42:27.561Z,99.99
2016-12-11T02:43:27.557Z,99.99
2016-12-11T02:44:27.574Z,99.99
2016-12-11T02:45:27.543Z,99.99
2016-12-11T02:46:27.592Z,99.99
2016-12-11T02:47:27.699Z,99.99
2016-12-11T02:48:27.552Z,99.99
2016-12-11T02:49:27.716Z,99.99
2016-12-11T02:50:27.547Z,99.99
2016-12-11T02:51:27.598Z,99.99
2016-12-11T02:52:27.540Z,99.99
2016-12-11T02:53:27.548Z,99.99
2016-12-11T02:54:27.577Z,99.99
2016-12-11T02:55:27.599Z,99.99
2016-12-11T02:56:27.629Z,99.99
2016-12-11T02:57:27.678Z,99.99
2016-12-11T02:58:27.561Z,99.99
2016-12-11T02:59:28.175Z,99.99
2016-12-11T03:00:27.566Z,99.99
2016-12-11T03:01:27.595Z,99.99
2016-12-11T03:02:27.559Z,99.99
2016-12-11T03:03:27.604Z,99.99
2016-12-11T03:04:27.575Z,99.99
2016-12-11T03:05:27.609Z,99.99
2016-12-11T03:06:27.566Z,99.99
2016-12-11T03:07:27.667Z,99.99
2016-12-11T03:08:27.565Z,99.99
2016-12-11T03:09:27.606Z,99.99
2016-12-11T03:10:27.568Z,99.99
2016-12-11T03:11:27.648Z,99.99
2016-12-11T03:12:27.564Z,99.99
2016-12-11T03:13:27.537Z,99.99
2016-12-11T03:14:27.546Z,99.99
2016-12-11T03:15:27.701Z,99.99
2016-12-11T03:16:27.616Z,99.99
2016-12-11T03:17:27.567Z,99.99
2016-12-11T03:18:27.591Z,99.99
2016-12-11T03:19:27.594Z,99.99
2016-12-11T03:20:27.657Z,99.99
2016-12-11T03:21:27.635Z,99.99
2016-12-11T03:22:27.606Z,99.99
2016-12-11T03:23:28.303Z,99.99
2016-12-11T03:24:27.596Z,99.99
2016-12-11T03:25:27.646Z,99.99
2016-12-11T03:26:27.622Z,99.99
2016-12-11T03:27:27.570Z,99.99
2016-12-11T03:28:27.545Z,99.99
2016-12-11T03:29:27.616Z,99.99
2016-12-11T03:30:28.716Z,99.99
2016-12-11T03:31:27.715Z,99.99
2016-12-11T03:32:27.668Z,99.99
2016-12-11T03:33:27.695Z,99.99
2016-12-11T03:34:27.598Z,99.99
2016-12-11T03:35:27.646Z,99.99
2016-12-11T03:36:27.645Z,99.99
2016-12-11T03:37:27.612Z,99.99
2016-12-11T03:38:27.653Z,99.99
2016-12-11T03:39:27.635Z,99.99
2016-12-11T03:40:27.612Z,99.99
2016-12-11T03:41:27.657Z,99.99
2016-12-11T03:42:27.595Z,99.99
2016-12-11T03:43:28.187Z,99.99
2016-12-11T03:44:28.356Z,99.99
2016-12-11T03:45:27.652Z,99.99
2016-12-11T03:46:27.637Z,99.99
2016-12-11T03:47:27.870Z,99.99
2016-12-11T03:48:28.625Z,99.99
2016-12-11T03:49:27.783Z,99.99
2016-12-11T03:50:27.764Z,99.99
2016-12-11T03:51:28.187Z,99.99
2016-12-11T03:52:27.761Z,99.99
2016-12-11T03:53:27.870Z,99.99
2016-12-11T03:54:27.715Z,99.99
2016-12-11T03:55:27.832Z,99.99
2016-12-11T03:56:27.742Z,99.99
2016-12-11T03:57:27.867Z,99.99
2016-12-11T03:58:27.720Z,99.99
2016-12-11T03:59:27.773Z,99.99
2016-12-11T04:00:27.679Z,99.99
2016-12-11T04:01:27.716Z,99.99
2016-12-11T04:02:29.309Z,99.99
2016-12-11T04:03:27.849Z,99.99
2016-12-11T04:04:27.828Z,99.99
2016-12-11T04:05:27.823Z,99.99
2016-12-11T04:06:27.752Z,99.99
2016-12-11T04:07:27.765Z,99.99
2016-12-11T04:08:27.785Z,99.99
2016-12-11T04:09:27.720Z,99.99
2016-12-11T04:10:27.761Z,99.99
2016-12-11T04:11:27.897Z,99.99
2016-12-11T04:12:28.284Z,99.93
2016-12-11T04:13:27.832Z,99.93
2016-12-11T04:14:27.766Z,99.84
2016-12-11T04:15:27.822Z,98.79
2016-12-11T04:16:27.723Z,97.74
2016-12-11T04:17:27.835Z,98.41
2016-12-11T04:18:27.701Z,97.74
2016-12-11T04:19:27.807Z,97.17
2016-12-11T04:20:27.740Z,96.98
2016-12-11T04:21:27.785Z,97.17
2016-12-11T04:22:27.851Z,96.22
2016-12-11T04:23:27.904Z,96.31
2016-12-11T04:24:27.764Z,94.32
2016-12-11T04:25:27.733Z,94.22
2016-12-11T04:26:27.817Z,94.74
2016-12-11T04:27:27.793Z,94.08
2016-12-11T04:28:27.711Z,94.65
2016-12-11T04:29:27.857Z,94.65
2016-12-11T04:30:27.738Z,94.27
2016-12-11T04:31:27.904Z,94.27
2016-12-11T04:32:27.661Z,94.56
2016-12-11T04:33:27.830Z,94.18
2016-12-11T04:34:27.789Z,94.27
2016-12-11T04:35:27.816Z,94.56
2016-12-11T04:36:27.777Z,94.46
2016-12-11T04:37:27.867Z,94.65
2016-12-11T04:38:27.742Z,95.12
2016-12-11T04:39:27.899Z,95.03
2016-12-11T04:40:27.786Z,94.93
2016-12-11T04:41:27.853Z,94.93
2016-12-11T04:42:27.695Z,95.89
2016-12-11T04:43:27.815Z,96.26
2016-12-11T04:44:27.700Z,96.17
2016-12-11T04:45:27.848Z,96.84
2016-12-11T04:46:27.743Z,96.65
2016-12-11T04:47:27.879Z,96.17
2016-12-11T04:48:27.722Z,95.79
2016-12-11T04:49:27.968Z,94.93
2016-12-11T04:50:27.808Z,94.84
2016-12-11T04:51:27.979Z,95.12
2016-12-11T04:52:28.049Z,94.93
2016-12-11T04:53:27.928Z,95.03
2016-12-11T04:54:27.735Z,95.6
2016-12-11T04:55:27.829Z,94.74
2016-12-11T04:56:27.751Z,95.32
2016-12-11T04:57:27.887Z,95.6
2016-12-11T04:58:27.720Z,95.22
2016-12-11T04:59:27.958Z,95.51
2016-12-11T05:00:27.701Z,96.08
2016-12-11T05:01:27.894Z,96.08
2016-12-11T05:02:27.759Z,96.17
2016-12-11T05:03:27.864Z,96.84
2016-12-11T05:04:27.694Z,96.74
2016-12-11T05:05:27.725Z,96.74
2016-12-11T05:06:27.736Z,97.22
2016-12-11T05:07:27.761Z,97.79
2016-12-11T05:08:27.699Z,97.41
2016-12-11T05:09:27.716Z,98.08
2016-12-11T05:10:27.705Z,97.69
2016-12-11T05:11:28.464Z,98.36
2016-12-11T05:12:27.746Z,98.83
2016-12-11T05:13:27.750Z,98.83
2016-12-11T05:14:27.700Z,99.22
2016-12-11T05:15:27.805Z,99.74
2016-12-11T05:16:27.775Z,99.84
2016-12-11T05:17:27.730Z,99.88
2016-12-11T05:18:28.991Z,99.99
2016-12-11T05:19:27.701Z,99.99
2016-12-11T05:20:27.705Z,99.99
2016-12-11T05:21:27.721Z,99.99
2016-12-11T05:22:27.784Z,99.99
2016-12-11T05:23:27.705Z,99.99
2016-12-11T05:24:27.746Z,99.99
2016-12-11T05:25:27.728Z,99.99
2016-12-11T05:26:27.795Z,99.99
2016-12-11T05:27:27.699Z,99.99
2016-12-11T05:28:27.694Z,99.99
2016-12-11T05:29:27.773Z,99.99
2016-12-11T05:30:27.727Z,99.99
2016-12-11T05:31:27.821Z,99.99
2016-12-11T05:32:27.755Z,99.99
2016-12-11T05:33:27.880Z,99.99
2016-12-11T05:34:27.718Z,99.99
2016-12-11T05:35:27.701Z,99.99
2016-12-11T05:36:27.737Z,99.99
2016-12-11T05:37:27.820Z,99.99
2016-12-11T05:38:27.733Z,99.99
2016-12-11T05:39:27.762Z,99.99
2016-12-11T05:40:27.732Z,99.99
2016-12-11T05:41:27.815Z,99.99
2016-12-11T05:42:27.722Z,99.99
2016-12-11T05:43:27.757Z,99.99
2016-12-11T05:44:27.728Z,99.99
2016-12-11T05:45:27.846Z,99.99
2016-12-11T05:46:27.769Z,99.99
2016-12-11T05:47:27.813Z,99.99
2016-12-11T05:48:27.748Z,99.99
2016-12-11T05:49:27.831Z,99.99
2016-12-11T05:50:27.801Z,99.26
2016-12-11T05:51:27.815Z,99.55
2016-12-11T05:52:27.916Z,99.64
2016-12-11T05:53:27.790Z,99.99
2016-12-11T05:54:27.744Z,99.84
2016-12-11T05:55:28.383Z,99.36
2016-12-11T05:56:27.804Z,98.97
2016-12-11T05:57:27.783Z,99.07
2016-12-11T05:58:27.875Z,99.74
2016-12-11T05:59:27.832Z,99.36
2016-12-11T06:00:27.751Z,98.88
2016-12-11T06:01:27.849Z,98.97
2016-12-11T06:02:27.800Z,99.45
2016-12-11T06:03:27.798Z,98.79
2016-12-11T06:04:27.775Z,99.07
2016-12-11T06:05:27.870Z,99.45
2016-12-11T06:06:27.801Z,98.69
2016-12-11T06:07:27.781Z,98.79
2016-12-11T06:08:27.782Z,98.31
2016-12-11T06:09:27.817Z,98.6
2016-12-11T06:10:27.856Z,99.36
2016-12-11T06:11:27.890Z,99.26
2016-12-11T06:12:27.865Z,98.97
2016-12-11T06:13:27.834Z,99.16
2016-12-11T06:14:27.801Z,99.84
2016-12-11T06:15:27.801Z,99.99
2016-12-11T06:16:28.160Z,99.99
2016-12-11T06:17:27.843Z,99.99
2016-12-11T06:18:27.792Z,99.99
2016-12-11T06:19:27.803Z,99.84
2016-12-11T06:20:27.834Z,99.93
2016-12-11T06:21:27.934Z,99.93
2016-12-11T06:22:27.827Z,99.64
2016-12-11T06:23:27.852Z,99.84
2016-12-11T06:24:27.782Z,99.99
2016-12-11T06:25:27.876Z,99.93
2016-12-11T06:26:27.860Z,99.99
2016-12-11T06:27:27.791Z,99.99
2016-12-11T06:28:27.766Z,99.99
2016-12-11T06:29:27.878Z,99.99
2016-12-11T06:30:27.792Z,99.99
2016-12-11T06:31:27.832Z,99.99
2016-12-11T06:32:27.787Z,99.99
2016-12-11T06:33:27.914Z,99.99
2016-12-11T06:34:27.813Z,99.99
2016-12-11T06:35:27.863Z,99.16
2016-12-11T06:36:27.903Z,99.55
2016-12-11T06:37:27.845Z,98.12
2016-12-11T06:38:27.826Z,99.55
2016-12-11T06:39:27.753Z,98.69
2016-12-11T06:40:27.809Z,98.5
2016-12-11T06:41:27.908Z,99.55
2016-12-11T06:42:27.899Z,99.07
2016-12-11T06:43:27.822Z,99.07
2016-12-11T06:44:27.813Z,99.07
2016-12-11T06:45:27.903Z,99.55
2016-12-11T06:46:27.820Z,99.74
2016-12-11T06:47:27.907Z,99.36
2016-12-11T06:48:27.825Z,99.99
2016-12-11T06:49:27.864Z,99.74
2016-12-11T06:50:27.831Z,99.99
2016-12-11T06:51:27.927Z,99.99
2016-12-11T06:52:27.832Z,99.99
2016-12-11T06:53:27.893Z,99.99
2016-12-11T06:54:27.840Z,99.64
2016-12-11T06:55:27.908Z,99.36
2016-12-11T06:56:27.860Z,99.93
2016-12-11T06:57:28.348Z,99.55
2016-12-11T06:58:28.985Z,99.26
2016-12-11T06:59:27.838Z,99.55
2016-12-11T07:00:27.846Z,99.74
2016-12-11T07:01:27.881Z,99.99
2016-12-11T07:02:28.421Z,99.55
2016-12-11T07:03:27.850Z,99.74
2016-12-11T07:04:27.902Z,99.55
2016-12-11T07:05:27.906Z,99.07
2016-12-11T07:06:27.894Z,99.84
2016-12-11T07:07:27.903Z,99.74
2016-12-11T07:08:27.871Z,98.97
2016-12-11T07:09:27.857Z,99.26
2016-12-11T07:10:28.000Z,99.64
2016-12-11T07:11:27.867Z,99.16
2016-12-11T07:12:27.852Z,99.07
2016-12-11T07:13:27.834Z,99.26
2016-12-11T07:14:27.911Z,99.45
2016-12-11T07:15:27.862Z,99.36
2016-12-11T07:16:27.916Z,99.74
2016-12-11T07:17:27.872Z,98.69
2016-12-11T07:18:27.856Z,98.69
2016-12-11T07:19:27.861Z,99.36
2016-12-11T07:20:27.873Z,99.26
2016-12-11T07:21:27.906Z,98.79
2016-12-11T07:22:27.879Z,99.07
2016-12-11T07:23:27.892Z,99.07
2016-12-11T07:24:27.857Z,99.45
2016-12-11T07:25:27.931Z,98.79
2016-12-11T07:26:27.948Z,98.88
2016-12-11T07:27:27.931Z,98.5
2016-12-11T07:28:27.912Z,98.79
2016-12-11T07:29:27.841Z,99.26
2016-12-11T07:30:28.107Z,99.36
2016-12-11T07:31:27.999Z,99.45
2016-12-11T07:32:27.893Z,99.84
2016-12-11T07:33:27.915Z,99.36
2016-12-11T07:34:27.903Z,99.74
2016-12-11T07:35:27.907Z,99.55
2016-12-11T07:36:28.012Z,99.16
2016-12-11T07:37:27.971Z,98.6
2016-12-11T07:38:27.932Z,98.79
2016-12-11T07:39:27.915Z,98.97
2016-12-11T07:40:27.869Z,99.07
2016-12-11T07:41:27.903Z,99.36
2016-12-11T07:42:27.961Z,98.97
2016-12-11T07:43:27.907Z,99.26
2016-12-11T07:44:28.018Z,98.69
2016-12-11T07:45:27.873Z,99.07
2016-12-11T07:46:27.954Z,98.5
2016-12-11T07:47:27.966Z,98.31
2016-12-11T07:48:27.892Z,98.31
2016-12-11T07:49:27.910Z,98.31
2016-12-11T07:50:27.921Z,98.31
2016-12-11T07:51:28.082Z,98.31
2016-12-11T07:52:28.046Z,98.6
2016-12-11T07:53:27.912Z,98.69
2016-12-11T07:54:27.934Z,98.88
2016-12-11T07:55:27.966Z,99.55
2016-12-11T07:56:27.976Z,99.26
2016-12-11T07:57:27.918Z,98.69
2016-12-11T07:58:27.913Z,98.88
2016-12-11T07:59:27.895Z,98.88
2016-12-11T08:00:28.042Z,98.41
2016-12-11T08:01:27.973Z,99.26
2016-12-11T08:02:27.960Z,99.45
2016-12-11T08:03:27.967Z,98.97
2016-12-11T08:04:27.924Z,99.36
2016-12-11T08:05:27.968Z,99.45
2016-12-11T08:06:28.007Z,99.16
2016-12-11T08:07:28.002Z,99.36
2016-12-11T08:08:27.981Z,99.36
2016-12-11T08:09:28.004Z,99.84
2016-12-11T08:10:28.036Z,99.64
2016-12-11T08:11:28.016Z,99.99
2016-12-11T08:12:27.969Z,99.99
2016-12-11T08:13:27.942Z,99.55
2016-12-11T08:14:27.963Z,99.74
2016-12-11T08:15:27.960Z,99.93
2016-12-11T08:16:28.102Z,99.99
2016-12-11T08:17:27.941Z,99.74
2016-12-11T08:18:28.131Z,99.55
2016-12-11T08:19:27.936Z,99.55
2016-12-11T08:20:27.946Z,99.16
2016-12-11T08:21:27.993Z,99.36
2016-12-11T08:22:28.021Z,99.07
2016-12-11T08:23:27.973Z,99.84
2016-12-11T08:24:28.073Z,99.16
2016-12-11T08:25:28.022Z,99.26
2016-12-11T08:26:28.100Z,99.26
2016-12-11T08:27:28.001Z,99.07
2016-12-11T08:28:28.049Z,99.16
2016-12-11T08:29:28.080Z,99.36
2016-12-11T08:30:28.048Z,99.55
2016-12-11T08:31:28.062Z,99.55
2016-12-11T08:32:28.114Z,99.26
2016-12-11T08:33:27.993Z,99.22
2016-12-11T08:34:27.974Z,98.46
2016-12-11T08:35:28.024Z,98.74
2016-12-11T08:36:27.995Z,98.27
2016-12-11T08:37:28.033Z,98.65
2016-12-11T08:38:28.083Z,98.17
2016-12-11T08:39:27.987Z,98.55
2016-12-11T08:40:27.978Z,98.27
2016-12-11T08:41:28.043Z,98.65
2016-12-11T08:42:28.033Z,98.36
2016-12-11T08:43:27.971Z,98.17
2016-12-11T08:44:27.991Z,97.88
2016-12-11T08:45:28.026Z,98.36
2016-12-11T08:46:28.033Z,98.17
2016-12-11T08:47:28.026Z,97.88
2016-12-11T08:48:27.959Z,97.88
2016-12-11T08:49:27.990Z,97.88
2016-12-11T08:50:28.052Z,97.88
2016-12-11T08:51:28.007Z,97.88
2016-12-11T08:52:28.033Z,97.5
2016-12-11T08:53:27.982Z,97.69
2016-12-11T08:54:27.980Z,97.31
2016-12-11T08:55:28.042Z,97.5
2016-12-11T08:56:28.051Z,97.69
2016-12-11T08:57:27.967Z,97.79
2016-12-11T08:58:28.104Z,97.79
2016-12-11T08:59:28.037Z,97.41
2016-12-11T09:00:28.193Z,97.69
2016-12-11T09:01:28.066Z,96.84
2016-12-11T09:02:28.185Z,97.03
2016-12-11T09:03:28.036Z,96.55
2016-12-11T09:04:28.231Z,97.41
2016-12-11T09:05:28.034Z,96.84
2016-12-11T09:06:28.150Z,97.03
2016-12-11T09:07:28.060Z,97.03
2016-12-11T09:08:28.086Z,97.31
2016-12-11T09:09:28.070Z,96.36
2016-12-11T09:10:28.070Z,95.98
2016-12-11T09:11:28.098Z,96.74
2016-12-11T09:12:28.555Z,96.55
2016-12-11T09:13:28.086Z,97.03
2016-12-11T09:14:28.034Z,96.17
2016-12-11T09:15:28.040Z,95.98
2016-12-11T09:16:28.154Z,95.98
2016-12-11T09:17:28.061Z,95.89
2016-12-11T09:18:28.170Z,95.51
2016-12-11T09:19:28.073Z,95.6
2016-12-11T09:20:28.231Z,95.7
2016-12-11T09:21:28.092Z,95.22
2016-12-11T09:22:28.239Z,95.6
2016-12-11T09:23:28.121Z,95.89
2016-12-11T09:24:28.219Z,95.51
2016-12-11T09:25:28.069Z,95.03
2016-12-11T09:26:28.108Z,94.93
2016-12-11T09:27:28.072Z,93.89
2016-12-11T09:28:28.128Z,94.03
2016-12-11T09:29:28.133Z,93.94
2016-12-11T09:30:28.147Z,93.74
2016-12-11T09:31:28.107Z,93.08
2016-12-11T09:32:28.157Z,92.22
2016-12-11T09:33:28.056Z,91.65
2016-12-11T09:34:28.029Z,91.08
2016-12-11T09:35:28.080Z,91.17
2016-12-11T09:36:28.231Z,91.65
2016-12-11T09:37:28.112Z,92.03
2016-12-11T09:38:28.124Z,92.13
2016-12-11T09:39:28.083Z,92.32
2016-12-11T09:40:28.071Z,92.22
2016-12-11T09:41:28.092Z,92.41
2016-12-11T09:42:28.203Z,92.79
2016-12-11T09:43:28.046Z,92.79
2016-12-11T09:44:28.273Z,92.79
2016-12-11T09:45:28.106Z,92.13
2016-12-11T09:46:28.094Z,92.51
2016-12-11T09:47:28.056Z,92.99
2016-12-11T09:48:28.093Z,92.41
2016-12-11T09:49:28.115Z,92.13
2016-12-11T09:50:28.144Z,92.32
2016-12-11T09:51:28.140Z,92.22
2016-12-11T09:52:28.342Z,92.41
2016-12-11T09:53:28.111Z,92.13
2016-12-11T09:54:28.219Z,91.75
2016-12-11T09:55:28.187Z,92.03
2016-12-11T09:56:28.219Z,92.03
2016-12-11T09:57:28.167Z,92.03
2016-12-11T09:58:28.297Z,91.37
2016-12-11T09:59:28.120Z,90.51
2016-12-11T10:00:28.351Z,90.51
2016-12-11T10:01:28.148Z,90.7
2016-12-11T10:02:28.156Z,90.89
2016-12-11T10:03:28.158Z,91.08
2016-12-11T10:04:28.095Z,91.17
2016-12-11T10:05:28.093Z,90.51
2016-12-11T10:06:28.163Z,90.42
2016-12-11T10:07:28.101Z,90.7
2016-12-11T10:08:28.236Z,90.89
2016-12-11T10:09:28.075Z,90.61
2016-12-11T10:10:28.272Z,91.08
2016-12-11T10:11:28.155Z,91.08
2016-12-11T10:12:28.186Z,91.17
2016-12-11T10:13:28.156Z,90.99
2016-12-11T10:14:28.131Z,90.89
2016-12-11T10:15:28.145Z,91.37
2016-12-11T10:16:28.320Z,90.56
2016-12-11T10:17:28.180Z,90.99
2016-12-11T10:18:28.154Z,91.37
2016-12-11T10:19:28.117Z,91.08
2016-12-11T10:20:28.265Z,91.27
2016-12-11T10:21:28.219Z,91.08
2016-12-11T10:22:28.215Z,91.37
2016-12-11T10:23:28.173Z,90.89
2016-12-11T10:24:28.374Z,91.65
2016-12-11T10:25:28.148Z,92.32
2016-12-11T10:26:28.211Z,92.03
2016-12-11T10:27:28.172Z,92.13
2016-12-11T10:28:28.313Z,92.7
2016-12-11T10:29:28.155Z,92.99
2016-12-11T10:30:28.177Z,92.7
2016-12-11T10:31:28.181Z,92.7
2016-12-11T10:32:28.201Z,92.79
2016-12-11T10:33:28.154Z,93.08
2016-12-11T10:34:28.266Z,92.7
2016-12-11T10:35:28.149Z,93.08
2016-12-11T10:36:28.239Z,92.79
2016-12-11T10:37:28.128Z,93.08
2016-12-11T10:38:28.333Z,92.89
2016-12-11T10:39:28.307Z,93.37
2016-12-11T10:40:28.283Z,93.65
2016-12-11T10:41:29.130Z,93.65
2016-12-11T10:42:28.303Z,93.27
2016-12-11T10:43:28.159Z,93.46
2016-12-11T10:44:28.356Z,93.27
2016-12-11T10:45:28.194Z,93.74
2016-12-11T10:46:28.322Z,93.32
2016-12-11T10:47:28.172Z,94.08
2016-12-11T10:48:28.345Z,93.98
2016-12-11T10:49:28.191Z,95.03
2016-12-11T10:50:28.335Z,95.51
2016-12-11T10:51:28.345Z,95.98
2016-12-11T10:52:28.308Z,95.6
2016-12-11T10:53:28.227Z,95.51
2016-12-11T10:54:28.218Z,95.65
2016-12-11T10:55:28.845Z,95.94
2016-12-11T10:56:28.242Z,95.84
2016-12-11T10:57:28.195Z,95.89
2016-12-11T10:58:28.271Z,95.6
2016-12-11T10:59:28.196Z,95.46
2016-12-11T11:00:28.244Z,95.75
2016-12-11T11:01:28.148Z,95.36
2016-12-11T11:02:28.283Z,94.89
2016-12-11T11:03:28.229Z,95.75
2016-12-11T11:04:28.489Z,95.36
2016-12-11T11:05:28.209Z,94.42
2016-12-11T11:06:28.590Z,94.32
2016-12-11T11:07:28.193Z,94.42
2016-12-11T11:08:28.192Z,94.13
2016-12-11T11:09:28.251Z,94.03
2016-12-11T11:10:28.202Z,94.22
2016-12-11T11:11:28.252Z,94.03
2016-12-11T11:12:28.883Z,93.65
2016-12-11T11:13:28.223Z,93.94
2016-12-11T11:14:28.307Z,93.46
2016-12-11T11:15:28.196Z,93.55
2016-12-11T11:16:28.327Z,93.46
2016-12-11T11:17:28.270Z,93.18
2016-12-11T11:18:28.231Z,92.13
2016-12-11T11:19:28.189Z,92.7
2016-12-11T11:20:28.258Z,92.99
2016-12-11T11:21:28.265Z,93.74
2016-12-11T11:22:28.833Z,93.18
2016-12-11T11:23:28.168Z,92.32
2016-12-11T11:24:28.219Z,92.03
2016-12-11T11:25:28.225Z,91.17
2016-12-11T11:26:28.271Z,90.84
2016-12-11T11:27:28.253Z,90.75
2016-12-11T11:28:28.290Z,89.61
2016-12-11T11:29:28.273Z,89.32
2016-12-11T11:30:28.372Z,89.51
2016-12-11T11:31:28.246Z,89.22
2016-12-11T11:32:28.297Z,88.6
2016-12-11T11:33:28.284Z,87.93
2016-12-11T11:34:28.330Z,87.84
2016-12-11T11:35:28.233Z,88.03
2016-12-11T11:36:28.405Z,88.6
2016-12-11T11:37:28.299Z,88.51
2016-12-11T11:38:28.391Z,87.84
2016-12-11T11:39:28.243Z,87.93
2016-12-11T11:40:28.305Z,87.55
2016-12-11T11:41:28.267Z,87.65
2016-12-11T11:42:28.305Z,87.93
2016-12-11T11:43:28.253Z,88.12
2016-12-11T11:44:28.350Z,88.22
2016-12-11T11:45:28.294Z,88.79
2016-12-11T11:46:28.421Z,87.51
2016-12-11T11:47:28.260Z,87.98
2016-12-11T11:48:28.344Z,88.18
2016-12-11T11:49:28.212Z,88.93
2016-12-11T11:50:28.234Z,87.89
2016-12-11T11:51:28.221Z,87.51
2016-12-11T11:52:28.337Z,87.36
2016-12-11T11:53:28.217Z,87.36
2016-12-11T11:54:28.328Z,87.74
2016-12-11T11:55:28.281Z,87.32
2016-12-11T11:56:28.235Z,87.51
2016-12-11T11:57:28.284Z,87.7
2016-12-11T11:58:28.387Z,86.65
2016-12-11T11:59:28.258Z,87.51
2016-12-11T12:00:28.526Z,87.55
2016-12-11T12:01:28.295Z,87.51
2016-12-11T12:02:29.355Z,86.75
2016-12-11T12:03:28.257Z,86.12
2016-12-11T12:04:28.333Z,86.41
2016-12-11T12:05:28.326Z,85.84
2016-12-11T12:06:28.397Z,85.27
2016-12-11T12:07:28.300Z,85.55
2016-12-11T12:08:28.357Z,86.03
2016-12-11T12:09:28.519Z,85.84
2016-12-11T12:10:28.365Z,85.84
2016-12-11T12:11:29.025Z,86.22
2016-12-11T12:12:28.395Z,86.41
2016-12-11T12:13:28.329Z,86.6
2016-12-11T12:14:28.309Z,86.79
2016-12-11T12:15:28.257Z,87.41
2016-12-11T12:16:28.402Z,87.41
2016-12-11T12:17:28.332Z,87.74
2016-12-11T12:18:28.336Z,87.41
2016-12-11T12:19:28.248Z,87.41
2016-12-11T12:20:28.455Z,87.32
2016-12-11T12:21:28.325Z,86.88
2016-12-11T12:22:28.333Z,86.69
2016-12-11T12:23:28.325Z,86.36
2016-12-11T12:24:28.387Z,87.03
2016-12-11T12:25:28.325Z,86.94
2016-12-11T12:26:28.434Z,86.84
2016-12-11T12:27:28.286Z,86.18
2016-12-11T12:28:28.479Z,86.08
2016-12-11T12:29:28.265Z,85.7
2016-12-11T12:30:28.454Z,85.17
2016-12-11T12:31:28.244Z,84.98
2016-12-11T12:32:28.403Z,85.55
2016-12-11T12:33:28.284Z,85.8
2016-12-11T12:34:28.415Z,86.08
2016-12-11T12:35:28.318Z,86.84
2016-12-11T12:36:28.475Z,86.94
2016-12-11T12:37:28.383Z,87.7
2016-12-11T12:38:28.402Z,87.32
2016-12-11T12:39:28.312Z,87.13
2016-12-11T12:40:28.580Z,87.7
2016-12-11T12:41:29.566Z,87.41
2016-12-11T12:42:28.538Z,87.23
2016-12-11T12:43:28.356Z,87.03
2016-12-11T12:44:28.444Z,86.94
2016-12-11T12:45:28.315Z,86.46
2016-12-11T12:46:28.313Z,85.36
2016-12-11T12:47:28.293Z,84.5
2016-12-11T12:48:28.427Z,84.98
2016-12-11T12:49:28.280Z,85.84
2016-12-11T12:50:28.463Z,86.65
2016-12-11T12:51:28.367Z,86.55
2016-12-11T12:52:28.375Z,86.36
2016-12-11T12:53:28.362Z,86.94
2016-12-11T12:54:28.373Z,87.13